createdAt,value
2022-08-27T00:01:47.393Z,96439.03
2022-08-27T00:04:15.388Z,96435.72
2022-08-27T00:06:43.472Z,96436.38
2022-08-27T00:09:14.591Z,96438.00
2022-08-27T00:11:45.047Z,96439.88
2022-08-27T00:14:13.305Z,96437.84
2022-08-27T00:16:43.897Z,96442.59
2022-08-27T00:19:12.585Z,96443.91
2022-08-27T00:21:40.545Z,96444.84
2022-08-27T00:24:08.523Z,96444.03
2022-08-27T00:26:40.165Z,96448.72
2022-08-27T00:29:10.653Z,96446.50
2022-08-27T00:31:38.627Z,96442.84
2022-08-27T00:34:07.902Z,96443.00
2022-08-27T00:36:36.720Z,96436.66
2022-08-27T00:39:04.983Z,96435.78
2022-08-27T00:41:33.387Z,96438.13
2022-08-27T00:44:03.197Z,96436.53
2022-08-27T00:46:35.806Z,96431.84
2022-08-27T00:49:09.221Z,96443.22
2022-08-27T00:51:38.033Z,96436.00
2022-08-27T00:54:08.250Z,96430.63
2022-08-27T00:56:44.275Z,96427.13
2022-08-27T00:59:18.659Z,96423.31
2022-08-27T01:02:05.549Z,96428.59
2022-08-27T01:04:36.751Z,96426.63
2022-08-27T01:07:05.019Z,96425.81
2022-08-27T01:09:33.823Z,96424.63
2022-08-27T01:12:01.815Z,96420.75
2022-08-27T01:14:29.683Z,96412.53
2022-08-27T01:16:59.226Z,96416.03
2022-08-27T01:19:31.319Z,96409.84
2022-08-27T01:22:06.937Z,96399.47
2022-08-27T01:24:41.485Z,96410.69
2022-08-27T01:27:16.768Z,96404.50
2022-08-27T01:29:44.986Z,96399.97
2022-08-27T01:32:18.392Z,96398.09
2022-08-27T01:34:47.279Z,96402.81
2022-08-27T01:37:23.626Z,96407.16
2022-08-27T01:39:54.555Z,96398.28
2022-08-27T01:42:28.351Z,96406.53
2022-08-27T01:44:58.034Z,96409.00
2022-08-27T01:47:30.784Z,96409.38
2022-08-27T01:50:00.389Z,96410.41
2022-08-27T01:52:31.044Z,96406.31
2022-08-27T01:55:00.554Z,96406.53
2022-08-27T01:57:28.875Z,96406.53
2022-08-27T01:59:58.065Z,96411.22
2022-08-27T02:02:26.565Z,96407.72
2022-08-27T02:04:54.512Z,96402.53
2022-08-27T02:07:22.549Z,96402.53
2022-08-27T02:09:52.307Z,96404.00
2022-08-27T02:12:21.607Z,96391.16
2022-08-27T02:14:49.580Z,96398.19
2022-08-27T02:17:17.692Z,96397.06
2022-08-27T02:19:45.620Z,96393.38
2022-08-27T02:22:13.782Z,96399.56
2022-08-27T02:24:42.175Z,96391.75
2022-08-27T02:27:10.492Z,96398.63
2022-08-27T02:29:39.791Z,96401.81
2022-08-27T02:32:07.991Z,96402.47
2022-08-27T02:34:50.801Z,96404.97
2022-08-27T02:37:18.723Z,96403.47
2022-08-27T02:39:46.671Z,96408.72
2022-08-27T02:42:14.894Z,96418.59
2022-08-27T02:44:44.223Z,96409.59
2022-08-27T02:47:12.360Z,96420.44
2022-08-27T02:49:40.433Z,96417.94
2022-08-27T02:52:08.437Z,96413.59
2022-08-27T02:54:36.443Z,96412.28
2022-08-27T02:57:04.450Z,96418.84
2022-08-27T02:59:32.447Z,96416.97
2022-08-27T03:02:01.974Z,96416.97
2022-08-27T03:04:30.088Z,96411.88
2022-08-27T03:06:58.024Z,96411.66
2022-08-27T03:09:25.971Z,96409.72
2022-08-27T03:11:55.127Z,96401.91
2022-08-27T03:14:23.119Z,96411.94
2022-08-27T03:16:51.172Z,96405.09
2022-08-27T03:19:23.716Z,96412.47
2022-08-27T03:21:54.681Z,96414.84
2022-08-27T03:24:23.116Z,96412.81
2022-08-27T03:26:52.555Z,96415.25
2022-08-27T03:29:22.406Z,96425.31
2022-08-27T03:31:50.362Z,96412.22
2022-08-27T03:34:19.927Z,96413.25
2022-08-27T03:36:51.478Z,96415.91
2022-08-27T03:39:20.188Z,96408.72
2022-08-27T03:41:54.819Z,96401.91
2022-08-27T03:44:24.285Z,96406.44
2022-08-27T03:46:52.856Z,96407.38
2022-08-27T03:49:22.265Z,96406.06
2022-08-27T03:51:53.279Z,96404.25
2022-08-27T03:54:21.249Z,96404.25
2022-08-27T03:56:49.215Z,96405.78
2022-08-27T03:59:17.197Z,96397.56
2022-08-27T04:01:45.896Z,96391.88
2022-08-27T04:04:14.117Z,96396.38
2022-08-27T04:06:42.614Z,96394.38
2022-08-27T04:09:12.390Z,96397.56
2022-08-27T04:11:40.304Z,96392.53
2022-08-27T04:14:22.639Z,96397.56
2022-08-27T04:16:56.176Z,96392.41
2022-08-27T04:19:27.666Z,96388.53
2022-08-27T04:22:00.795Z,96394.06
2022-08-27T04:24:31.322Z,96398.56
2022-08-27T04:26:59.511Z,96399.44
2022-08-27T04:29:27.820Z,96402.94
2022-08-27T04:31:56.155Z,96406.94
2022-08-27T04:34:24.643Z,96407.75
2022-08-27T04:36:53.185Z,96412.09
2022-08-27T04:39:21.206Z,96408.13
2022-08-27T04:41:52.186Z,96415.63
2022-08-27T04:44:20.462Z,96417.94
2022-08-27T04:46:50.172Z,96415.28
2022-08-27T04:49:18.688Z,96421.81
2022-08-27T04:51:48.278Z,96416.00
2022-08-27T04:54:16.804Z,96416.66
2022-08-27T04:56:44.898Z,96414.28
2022-08-27T04:59:14.205Z,96409.09
2022-08-27T05:01:43.295Z,96417.31
2022-08-27T05:04:14.760Z,96403.41
2022-08-27T05:06:44.455Z,96404.25
2022-08-27T05:09:13.394Z,96412.44
2022-08-27T05:11:41.911Z,96410.44
2022-08-27T05:14:12.474Z,96405.78
2022-08-27T05:16:42.676Z,96408.59
2022-08-27T05:19:14.671Z,96412.94
2022-08-27T05:21:47.633Z,96414.97
2022-08-27T05:24:17.458Z,96408.06
2022-08-27T05:26:46.495Z,96410.72
2022-08-27T05:29:14.725Z,96410.25
2022-08-27T05:31:44.324Z,96408.41
2022-08-27T05:34:16.846Z,96412.94
2022-08-27T05:36:48.995Z,96408.72
2022-08-27T05:39:18.206Z,96407.69
2022-08-27T05:41:46.208Z,96410.84
2022-08-27T05:47:05.280Z,96406.16
2022-08-27T05:49:33.434Z,96403.94
2022-08-27T05:52:01.421Z,96413.31
2022-08-27T05:54:29.369Z,96405.13
2022-08-27T05:56:57.414Z,96410.63
2022-08-27T05:59:42.914Z,96415.31
2022-08-27T06:02:12.342Z,96413.78
2022-08-27T06:04:40.382Z,96404.09
2022-08-27T06:07:09.300Z,96413.78
2022-08-27T06:09:38.700Z,96419.25
2022-08-27T06:12:07.448Z,96411.88
2022-08-27T06:14:36.843Z,96414.84
2022-08-27T06:17:06.372Z,96414.25
2022-08-27T06:19:36.585Z,96416.75
2022-08-27T06:22:10.668Z,96416.22
2022-08-27T06:24:40.178Z,96424.59
2022-08-27T06:27:10.431Z,96422.03
2022-08-27T06:29:38.435Z,96421.34
2022-08-27T06:32:06.649Z,96420.69
2022-08-27T06:34:36.830Z,96423.50
2022-08-27T06:37:04.806Z,96421.63
2022-08-27T06:39:33.025Z,96421.28
2022-08-27T06:42:01.025Z,96423.59
2022-08-27T06:44:34.098Z,96424.16
2022-08-27T06:47:03.690Z,96424.97
2022-08-27T06:49:31.832Z,96427.56
2022-08-27T06:52:01.288Z,96426.47
2022-08-27T06:54:29.338Z,96432.47
2022-08-27T06:56:59.898Z,96431.09
2022-08-27T06:59:27.846Z,96433.28
2022-08-27T07:01:55.848Z,96427.25
2022-08-27T07:04:32.081Z,96424.72
2022-08-27T07:07:03.176Z,96433.91
2022-08-27T07:10:52.747Z,96437.63
2022-08-27T07:13:04.648Z,96424.06
2022-08-27T07:15:33.379Z,96434.03
2022-08-27T07:18:03.179Z,96426.81
2022-08-27T07:20:33.446Z,96432.72
2022-08-27T07:23:02.876Z,96433.69
2022-08-27T07:25:32.195Z,96435.97
2022-08-27T07:28:00.960Z,96433.13
2022-08-27T07:30:29.232Z,96432.13
2022-08-27T07:32:57.131Z,96430.00
2022-08-27T07:35:25.115Z,96435.84
2022-08-27T07:37:53.145Z,96439.84
2022-08-27T07:40:22.718Z,96426.81
2022-08-27T07:43:08.111Z,96438.47
2022-08-27T07:45:36.408Z,96442.81
2022-08-27T07:48:04.654Z,96448.00
2022-08-27T07:50:34.591Z,96447.06
2022-08-27T07:53:02.650Z,96453.47
2022-08-27T07:55:32.012Z,96452.06
2022-08-27T07:58:00.884Z,96458.72
2022-08-27T08:00:29.076Z,96456.97
2022-08-27T08:02:57.023Z,96456.97
2022-08-27T08:05:25.809Z,96455.56
2022-08-27T08:07:53.816Z,96457.69
2022-08-27T08:10:23.395Z,96458.72
2022-08-27T08:12:52.638Z,96459.09
2022-08-27T08:15:20.860Z,96462.44
2022-08-27T08:17:48.739Z,96466.13
2022-08-27T08:20:27.563Z,96463.38
2022-08-27T08:23:03.882Z,96471.75
2022-08-27T08:25:34.547Z,96465.56
2022-08-27T08:28:08.071Z,96467.81
2022-08-27T08:30:36.352Z,96463.53
2022-08-27T08:33:04.580Z,96471.03
2022-08-27T08:35:35.059Z,96471.13
2022-08-27T08:38:09.584Z,96471.31
2022-08-27T08:40:41.241Z,96476.78
2022-08-27T08:43:22.445Z,96479.09
2022-08-27T08:45:52.181Z,96484.25
2022-08-27T08:48:23.235Z,96482.75
2022-08-27T08:50:59.674Z,96481.22
2022-08-27T08:53:48.885Z,96484.13
2022-08-27T08:56:22.707Z,96489.88
2022-08-27T08:58:57.754Z,96496.28
2022-08-27T09:01:28.672Z,96491.56
2022-08-27T09:03:59.262Z,96484.63
2022-08-27T09:06:35.434Z,96492.13
2022-08-27T09:09:14.542Z,96490.47
2022-08-27T09:11:51.943Z,96491.78
2022-08-27T09:14:28.833Z,96496.84
2022-08-27T09:17:00.770Z,96490.47
2022-08-27T09:19:30.141Z,96489.66
2022-08-27T09:22:03.127Z,96488.44
2022-08-27T09:24:38.675Z,96499.91
2022-08-27T09:27:07.205Z,96502.03
2022-08-27T09:29:38.472Z,96501.75
2022-08-27T09:32:09.528Z,96503.03
2022-08-27T09:34:40.014Z,96501.38
2022-08-27T09:37:12.070Z,96499.06
2022-08-27T09:39:51.389Z,96496.44
2022-08-27T09:42:37.424Z,96492.28
2022-08-27T09:45:11.921Z,96500.00
2022-08-27T09:47:45.137Z,96488.72
2022-08-27T09:50:14.047Z,96493.59
2022-08-27T09:52:55.121Z,96489.72
2022-08-27T09:55:37.905Z,96482.78
2022-08-27T09:58:17.675Z,96491.84
2022-08-27T10:00:48.864Z,96489.28
2022-08-27T10:03:16.958Z,96487.69
2022-08-27T10:05:50.604Z,96485.19
2022-08-27T10:08:28.774Z,96490.16
2022-08-27T10:10:59.691Z,96496.09
2022-08-27T10:13:34.275Z,96492.22
2022-08-27T10:16:22.316Z,96490.25
2022-08-27T10:18:59.705Z,96494.16
2022-08-27T10:21:36.179Z,96492.28
2022-08-27T10:24:23.900Z,96492.66
2022-08-27T10:27:03.980Z,96486.00
2022-08-27T10:29:40.734Z,96489.53
2022-08-27T10:32:20.402Z,96494.91
2022-08-27T10:35:08.199Z,96484.91
2022-08-27T10:37:45.465Z,96487.53
2022-08-27T10:40:20.309Z,96489.19
2022-08-27T10:42:57.585Z,96491.06
2022-08-27T10:45:41.786Z,96494.13
2022-08-27T10:48:24.535Z,96495.88
2022-08-27T10:50:57.918Z,96502.09
2022-08-27T10:53:35.639Z,96498.16
2022-08-27T10:56:14.481Z,96499.84
2022-08-27T10:58:54.458Z,96504.66
2022-08-27T11:01:28.744Z,96510.41
2022-08-27T11:04:04.182Z,96510.88
2022-08-27T11:06:36.025Z,96514.47
2022-08-27T11:09:11.908Z,96507.91
2022-08-27T11:12:13.763Z,96505.41
2022-08-27T11:14:37.509Z,96505.22
2022-08-27T11:17:11.327Z,96508.66
2022-08-27T11:19:48.143Z,96505.47
2022-08-27T11:22:26.533Z,96507.16
2022-08-27T11:25:00.823Z,96505.56
2022-08-27T11:27:33.143Z,96501.03
2022-08-27T11:30:06.838Z,96506.41
2022-08-27T11:32:49.185Z,96504.03
2022-08-27T11:35:24.085Z,96502.34
2022-08-27T11:38:19.356Z,96505.41
2022-08-27T11:41:02.410Z,96503.16
2022-08-27T11:43:33.434Z,96503.44
2022-08-27T11:46:03.295Z,96498.00
2022-08-27T11:48:34.536Z,96503.81
2022-08-27T11:51:07.154Z,96495.41
2022-08-27T11:53:49.029Z,96497.06
2022-08-27T11:56:37.339Z,96496.03
2022-08-27T11:59:11.909Z,96497.78
2022-08-27T12:01:40.201Z,96495.50
2022-08-27T12:04:23.675Z,96494.19
2022-08-27T12:07:00.625Z,96487.41
2022-08-27T12:09:29.112Z,96482.69
2022-08-27T12:12:06.712Z,96482.69
2022-08-27T12:14:44.654Z,96487.47
2022-08-27T12:17:24.544Z,96487.78
2022-08-27T12:20:07.243Z,96483.81
2022-08-27T12:23:19.494Z,96478.78
2022-08-27T12:25:57.554Z,96484.97
2022-08-27T12:28:27.300Z,96485.22
2022-08-27T12:30:56.918Z,96472.31
2022-08-27T12:33:31.669Z,96475.50
2022-08-27T12:36:08.114Z,96476.91
2022-08-27T12:38:50.728Z,96485.94
2022-08-27T12:41:26.754Z,96482.16
2022-08-27T12:44:04.965Z,96476.84
2022-08-27T12:46:33.298Z,96476.25
2022-08-27T12:49:35.839Z,96481.03
2022-08-27T12:51:53.945Z,96477.88
2022-08-27T12:54:36.318Z,96480.06
2022-08-27T12:57:11.839Z,96480.50
2022-08-27T12:59:55.186Z,96477.16
2022-08-27T13:02:40.783Z,96476.34
2022-08-27T13:05:11.914Z,96473.84
2022-08-27T13:07:43.285Z,96474.34
2022-08-27T13:10:16.755Z,96478.44
2022-08-27T13:12:46.322Z,96466.47
2022-08-27T13:15:17.495Z,96471.19
2022-08-27T13:17:47.288Z,96465.41
2022-08-27T13:20:18.890Z,96480.13
2022-08-27T13:22:47.191Z,96475.97
2022-08-27T13:25:25.857Z,96478.91
2022-08-27T13:27:56.005Z,96479.22
2022-08-27T13:30:36.201Z,96484.13
2022-08-27T13:33:07.249Z,96481.69
2022-08-27T13:35:35.802Z,96476.16
2022-08-27T13:38:05.560Z,96486.25
2022-08-27T13:40:37.991Z,96484.63
2022-08-27T13:43:09.991Z,96487.47
2022-08-27T13:45:41.860Z,96485.03
2022-08-27T13:48:12.377Z,96488.28
2022-08-27T13:50:50.634Z,96473.81
2022-08-27T13:53:41.221Z,96481.88
2022-08-27T13:56:11.128Z,96487.34
2022-08-27T13:58:39.053Z,96481.63
2022-08-27T14:01:12.260Z,96482.53
2022-08-27T14:03:48.578Z,96484.19
2022-08-27T14:06:35.899Z,96477.28
2022-08-27T14:09:18.863Z,96472.63
2022-08-27T14:11:48.595Z,96471.72
2022-08-27T14:14:19.402Z,96476.75
2022-08-27T14:16:58.203Z,96469.69
2022-08-27T14:19:28.047Z,96465.03
2022-08-27T14:21:56.992Z,96468.38
2022-08-27T14:24:24.951Z,96464.78
2022-08-27T14:26:56.458Z,96467.25
2022-08-27T14:29:24.407Z,96464.81
2022-08-27T14:31:52.291Z,96463.47
2022-08-27T14:34:20.143Z,96457.25
2022-08-27T14:36:51.744Z,96456.44
2022-08-27T14:42:12.548Z,96455.28
2022-08-27T14:44:40.522Z,96455.13
2022-08-27T14:47:10.245Z,96456.44
2022-08-27T14:47:26.412Z,96460.50
2022-08-27T14:49:40.952Z,96454.09
2022-08-27T14:52:10.335Z,96454.09
2022-08-27T14:54:39.095Z,96447.19
2022-08-27T14:57:08.835Z,96460.03
2022-08-27T14:59:38.723Z,96454.66
2022-08-27T15:02:08.997Z,96455.28
2022-08-27T15:04:37.099Z,96456.22
2022-08-27T15:07:06.310Z,96455.69
2022-08-27T15:09:34.267Z,96454.75
2022-08-27T15:12:02.186Z,96450.03
2022-08-27T15:14:32.993Z,96454.28
2022-08-27T15:17:33.407Z,96459.66
2022-08-27T15:19:51.397Z,96446.69
2022-08-27T15:22:22.408Z,96450.41
2022-08-27T15:24:55.051Z,96455.28
2022-08-27T15:27:23.138Z,96455.13
2022-08-27T15:30:08.794Z,96454.09
2022-08-27T15:32:41.888Z,96459.31
2022-08-27T15:35:13.912Z,96450.78
2022-08-27T15:37:42.426Z,96451.41
2022-08-27T15:40:12.484Z,96451.78
2022-08-27T15:42:40.707Z,96461.16
2022-08-27T15:45:11.362Z,96454.75
2022-08-27T15:47:40.642Z,96449.38
2022-08-27T15:50:09.412Z,96458.31
2022-08-27T15:52:41.271Z,96450.50
2022-08-27T15:55:15.870Z,96447.59
2022-08-27T15:57:43.773Z,96443.66
2022-08-27T16:00:12.839Z,96446.78
2022-08-27T16:02:42.805Z,96447.66
2022-08-27T16:05:11.411Z,96444.81
2022-08-27T16:07:39.432Z,96443.75
2022-08-27T16:10:08.574Z,96443.97
2022-08-27T16:12:36.870Z,96439.84
2022-08-27T16:15:06.323Z,96453.50
2022-08-27T16:17:35.744Z,96459.25
2022-08-27T16:20:07.111Z,96455.56
2022-08-27T16:22:35.844Z,96453.69
2022-08-27T16:25:06.132Z,96460.53
2022-08-27T16:27:34.463Z,96456.38
2022-08-27T16:30:02.762Z,96461.16
2022-08-27T16:32:32.745Z,96463.22
2022-08-27T16:35:01.088Z,96459.63
2022-08-27T16:37:30.827Z,96467.94
2022-08-27T16:39:59.115Z,96467.31
2022-08-27T16:42:27.928Z,96466.69
2022-08-27T16:44:56.663Z,96466.69
2022-08-27T16:47:24.874Z,96465.41
2022-08-27T16:50:10.459Z,96462.47
2022-08-27T16:52:53.940Z,96462.81
2022-08-27T16:55:22.156Z,96457.44
2022-08-27T16:57:50.381Z,96471.09
2022-08-27T17:00:19.220Z,96468.47
2022-08-27T17:02:47.305Z,96466.81
2022-08-27T17:05:34.366Z,96470.50
2022-08-27T17:08:05.471Z,96475.63
2022-08-27T17:10:36.439Z,96478.03
2022-08-27T17:13:04.720Z,96474.91
2022-08-27T17:15:32.681Z,96471.50
2022-08-27T17:18:00.696Z,96472.50
2022-08-27T17:20:30.971Z,96471.41
2022-08-27T17:23:00.213Z,96480.03
2022-08-27T17:25:30.615Z,96482.25
2022-08-27T17:28:00.333Z,96485.41
2022-08-27T17:30:28.988Z,96484.50
2022-08-27T17:32:57.844Z,96493.19
2022-08-27T17:35:25.714Z,96486.34
2022-08-27T17:37:53.620Z,96484.22
2022-08-27T17:40:21.784Z,96486.03
2022-08-27T17:42:51.103Z,96485.22
2022-08-27T17:45:19.200Z,96480.69
2022-08-27T17:47:47.383Z,96485.44
2022-08-27T17:50:15.636Z,96478.38
2022-08-27T17:52:43.508Z,96480.22
2022-08-27T17:55:11.423Z,96476.47
2022-08-27T17:57:41.119Z,96473.94
2022-08-27T18:00:13.236Z,96480.13
2022-08-27T18:02:45.036Z,96483.84
2022-08-27T18:05:13.925Z,96482.56
2022-08-27T18:07:42.575Z,96472.19
2022-08-27T18:10:12.611Z,96482.72
2022-08-27T18:12:42.187Z,96486.63
2022-08-27T18:15:16.817Z,96487.81
2022-08-27T18:17:44.839Z,96489.19
2022-08-27T18:20:14.198Z,96499.09
2022-08-27T18:22:48.885Z,96498.78
2022-08-27T18:25:18.039Z,96498.66
2022-08-27T18:27:49.176Z,96497.16
2022-08-27T18:30:19.101Z,96508.22
2022-08-27T18:32:47.013Z,96498.16
2022-08-27T18:35:17.771Z,96503.22
2022-08-27T18:37:46.204Z,96497.59
2022-08-27T18:40:17.286Z,96501.75
2022-08-27T18:42:45.927Z,96508.88
2022-08-27T18:45:17.034Z,96513.94
2022-08-27T18:47:46.840Z,96522.16
2022-08-27T18:50:19.646Z,96522.16
2022-08-27T18:52:48.514Z,96530.38
2022-08-27T18:55:19.974Z,96534.75
2022-08-27T18:57:48.041Z,96530.22
2022-08-27T19:00:18.892Z,96527.91
2022-08-27T19:02:52.687Z,96525.00
2022-08-27T19:05:24.961Z,96531.84
2022-08-27T19:07:52.894Z,96538.25
2022-08-27T19:10:20.979Z,96534.53
2022-08-27T19:12:49.513Z,96536.94
2022-08-27T19:15:18.673Z,96551.38
2022-08-27T19:17:54.002Z,96550.19
2022-08-27T19:20:22.137Z,96553.69
2022-08-27T19:22:50.186Z,96554.06
2022-08-27T19:25:18.832Z,96555.06
2022-08-27T19:27:47.647Z,96559.13
2022-08-27T19:30:18.155Z,96556.44
2022-08-27T19:32:46.263Z,96558.81
2022-08-27T19:35:15.491Z,96566.56
2022-08-27T19:37:48.469Z,96568.25
2022-08-27T19:40:21.825Z,96560.91
2022-08-27T19:42:50.686Z,96562.41
2022-08-27T19:45:21.928Z,96563.59
2022-08-27T19:47:51.840Z,96563.13
2022-08-27T19:50:22.659Z,96566.81
2022-08-27T19:52:51.211Z,96563.31
2022-08-27T19:55:19.503Z,96559.31
2022-08-27T19:57:48.542Z,96569.72
2022-08-27T20:00:19.263Z,96557.91
2022-08-27T20:02:47.478Z,96566.75
2022-08-27T20:05:22.782Z,96563.41
2022-08-27T20:07:52.324Z,96561.09
2022-08-27T20:10:36.675Z,96563.78
2022-08-27T20:13:05.571Z,96562.28
2022-08-27T20:15:33.659Z,96568.81
2022-08-27T20:18:03.226Z,96561.31
2022-08-27T20:20:33.425Z,96558.16
2022-08-27T20:23:02.929Z,96556.69
2022-08-27T20:25:31.122Z,96570.19
2022-08-27T20:27:59.316Z,96561.88
2022-08-27T20:30:29.300Z,96565.91
2022-08-27T20:32:57.913Z,96569.31
2022-08-27T20:35:25.862Z,96565.97
2022-08-27T20:37:55.145Z,96561.13
2022-08-27T20:40:26.032Z,96568.13
2022-08-27T20:42:54.167Z,96565.97
2022-08-27T20:45:22.136Z,96566.66
2022-08-27T20:47:50.720Z,96569.03
2022-08-27T20:50:19.930Z,96571.03
2022-08-27T20:52:48.117Z,96574.91
2022-08-27T20:55:18.437Z,96577.75
2022-08-27T20:58:04.524Z,96580.41
2022-08-27T21:00:35.824Z,96577.78
2022-08-27T21:03:03.794Z,96578.13
2022-08-27T21:05:34.951Z,96576.81
2022-08-27T21:08:03.551Z,96578.66
2022-08-27T21:10:33.468Z,96578.50
2022-08-27T21:13:04.793Z,96581.50
2022-08-27T21:15:33.621Z,96583.03
2022-08-27T21:18:01.503Z,96584.22
2022-08-27T21:20:29.409Z,96579.19
2022-08-27T21:22:57.915Z,96576.88
2022-08-27T21:25:27.503Z,96578.72
2022-08-27T21:27:58.415Z,96590.75
2022-08-27T21:30:26.558Z,96588.44
2022-08-27T21:32:56.073Z,96579.75
2022-08-27T21:35:26.442Z,96586.94
2022-08-27T21:37:54.763Z,96582.72
2022-08-27T21:40:24.467Z,96593.63
2022-08-27T21:42:52.641Z,96584.94
2022-08-27T21:45:22.523Z,96579.94
2022-08-27T21:47:51.729Z,96587.59
2022-08-27T21:50:20.562Z,96586.63
2022-08-27T21:52:48.396Z,96578.59
2022-08-27T21:55:16.532Z,96584.28
2022-08-27T21:57:44.434Z,96586.97
2022-08-27T22:00:22.732Z,96591.47
2022-08-27T22:02:52.012Z,96589.94
2022-08-27T22:05:34.400Z,96582.59
2022-08-27T22:08:02.802Z,96579.94
2022-08-27T22:10:30.979Z,96574.75
2022-08-27T22:13:00.152Z,96578.59
2022-08-27T22:15:28.563Z,96572.09
2022-08-27T22:17:58.046Z,96572.41
2022-08-27T22:20:26.385Z,96568.25
2022-08-27T22:22:54.520Z,96564.22
2022-08-27T22:25:22.609Z,96565.91
2022-08-27T22:27:50.709Z,96570.75
2022-08-27T22:30:19.045Z,96564.25
2022-08-27T22:32:47.536Z,96570.78
2022-08-27T22:35:18.754Z,96575.94
2022-08-27T22:37:47.310Z,96574.63
2022-08-27T22:40:19.461Z,96578.28
2022-08-27T22:42:48.578Z,96567.94
2022-08-27T22:45:16.968Z,96572.25
2022-08-27T22:47:45.150Z,96569.78
2022-08-27T22:50:13.980Z,96579.28
2022-08-27T22:52:43.728Z,96579.28
2022-08-27T22:55:14.026Z,96578.94
2022-08-27T22:57:42.497Z,96575.09
2022-08-27T23:00:14.154Z,96572.28
2022-08-27T23:02:42.215Z,96569.75
2022-08-27T23:05:10.799Z,96570.25
2022-08-27T23:07:39.157Z,96566.09
2022-08-27T23:10:11.394Z,96571.63
2022-08-27T23:12:39.638Z,96566.75
2022-08-27T23:15:13.572Z,96572.75
2022-08-27T23:17:42.022Z,96561.91
2022-08-27T23:20:11.963Z,96565.56
2022-08-27T23:22:40.348Z,96575.44
2022-08-27T23:25:25.942Z,96572.91
2022-08-27T23:27:54.125Z,96563.56
2022-08-27T23:30:23.035Z,96566.59
2022-08-27T23:32:53.909Z,96561.06
2022-08-27T23:35:22.928Z,96566.41
2022-08-27T23:37:51.273Z,96570.09
2022-08-27T23:40:21.591Z,96573.44
2022-08-27T23:42:50.174Z,96569.25
2022-08-27T23:45:21.301Z,96565.91
2022-08-27T23:47:49.704Z,96582.09
2022-08-27T23:50:18.322Z,96587.44
2022-08-27T23:52:46.497Z,96588.78
2022-08-27T23:55:14.922Z,96585.59
2022-08-27T23:57:44.320Z,96584.97
